Carthage, IL (62321)

3:06 PM CDT on April 25, 2017 (GMT -0500)
Southeast of Carthage | | Change Station
Active Advisory: Flood Warning

Elev 610 ft 40.40 °N, 91.08 °W | Updated 13 seconds ago

Partly Cloudy
Partly Cloudy
79.9 °F
Feels Like 80 °F
N
24.8
Wind Variable Wind from SSE
Gusts 27.5 mph

Today
High -- | Low -- °F
--% Chance of Precip.
Yesterday
High -- | Low -- °F
Precip. -- in
Pressure 29.45 in
Visibility 10.0 miles
Clouds Clear
Heat Index 80 °F
Dew Point 50 °F
Humidity 36%
Rainfall 0.00 in
Snow Depth Not available.
6:11 AM 7:54 PM
Waning Crescent, 1% visible
METAR KEOK 251955Z AUTO 14014G20KT 10SM CLR 25/09 A2945 RMK AO2
Pressure 29.45 in
Visibility 10.0 miles
Clouds Clear
Heat Index 80 °F
Dew Point 50 °F
Humidity 36%
Rainfall 0.00 in
Snow Depth Not available.
6:11 AM 7:54 PM
Waning Crescent, 1% visible
METAR KEOK 251955Z AUTO 14014G20KT 10SM CLR 25/09 A2945 RMK AO2

Get Your Daily Forecast Email!

Thanks for signing up!

Be on the lookout for a verification email in your inbox.

You'll start receiving severe weather alerts in your inbox..

×

10-Day Weather Forecast

Almanac

Astronomy

Apr. 25, 2017 Rise Set
Actual Time
Civil Twilight
Nautical Twilight
Astronomical Twilight
Moon
Length of Visible Light
Length of Day
Tomorrow will be .
, % of the Moon is Illuminated

Today's Extremes

State Highs State Lows

Community

WunderPhotos

WunderBlog® & News

Nearby

Air Quality

  Air Quality AQ Index Pollutant
Not available.

Snow Depth

Station Depth Elevation

Earthquake Activity

City Distance Mag. Time & Date
Minimum magnitude displayed is 2.5.

Coastal Water Temperatures

Place Temperature

Stations

Nearby Weather Stations

Station Location Temp. Windchill Dew Point Humidity Wind Precip. Elev Updated Type
                   

Watches & Warnings

Flood Warning
Issued: 10:07 AM CDT Apr. 25, 2017 – National Weather Service

... Flood Warning remains in effect until further notice...

The Flood Warning continues for
the Mississippi River at Burlington.
* Until further notice.
* At 9:00 am Tuesday the stage was 15.4 feet... and steady.
* Flood stage is 15.0 feet.
* Minor flooding is occurring and is forecast to continue.
* Forecast... rise to 15.5 feet Thursday evening... then begin falling.
* Impact... at 15.0 feet... agricultural flooding occurs.


Lat... Lon 4086 9110 4084 9105 4062 9108 4061 9142
     4067 9118


Uttech